Zaher_v — ODTX — position and weather

sailwx.info

Track history (hours):
 
Tides and Currents Weather Stations Pressure Air Temp Water Temp Dewpoint Dewpoint Depression Visibility Wind Speed Wind Dir Waves Ship Positions

Zaher_v

Last reported at 2014-Dec-18 23:06 UTC. Time now 2014-Dec-20 07:18 UTC.
Position N 37°24' W 001°10'.

Length 124 m; draft 4.9 m.

Type: Cargo ship. MMSI: 450501000.

Date/timePositionNaut miles runAvg speedWind from/ knotsBaromVisibWave heightAir tempDewpointWater temp
2014-Dec-18 23:06N 37°24' W 001°10'14 2.9
2014-Dec-18 18:14N 37°34' W 000°57'0 0.0
2014-Dec-18 17:33N 37°34' W 000°57'0 0.0
2014-Dec-18 16:31N 37°34' W 000°57'0 0.0
2014-Dec-18 15:31N 37°34' W 000°57'0 0.0
2014-Dec-18 14:31N 37°34' W 000°57'0 0.0
2014-Dec-18 13:32N 37°34' W 000°57'0 0.0
2014-Dec-18 12:32N 37°34' W 000°57'0 0.0
2014-Dec-18 11:33N 37°34' W 000°57'0 0.0
2014-Dec-18 10:31N 37°34' W 000°57'0 0.0
2014-Dec-18 09:31N 37°34' W 000°57'0 0.0
2014-Dec-18 08:32N 37°34' W 000°57'0 0.0
2014-Dec-18 02:33N 37°34' W 000°57'0 0.0
2014-Dec-18 01:31N 37°34' W 000°57'0 0.0
2014-Dec-18 00:31N 37°34' W 000°57'0 0.0
2014-Dec-17 23:32N 37°34' W 000°57'0 0.1
2014-Dec-17 22:17N 37°34' W 000°57'2 3.4
2014-Dec-17 21:33N 37°32' W 000°60'1 0.7
2014-Dec-17 20:33N 37°32' W 000°60'9 8.3
2014-Dec-17 19:27N 37°29' W 000°49'1111.9
2014-Dec-17 18:33N 37°29' W 000°36'  
2014-Dec-10 22:04N 34°31' E 032°34'610.6
2014-Dec-10 21:33N 34°31' E 032°41'1010.4
2014-Dec-10 20:33N 34°31' E 032°54'9 9.3
2014-Dec-10 19:33N 34°33' E 033°05'8 7.4
2014-Dec-10 18:31N 34°41' E 033°04'0 0.0
2014-Dec-10 17:31N 34°41' E 033°04'0 0.0
2014-Dec-10 16:32N 34°41' E 033°04'0 0.0
2014-Dec-10 15:33N 34°41' E 033°04'0 0.0
2014-Dec-10 14:33N 34°41' E 033°04'0 0.0
2014-Dec-10 13:31N 34°41' E 033°04'0 0.0
2014-Dec-10 12:32N 34°41' E 033°04'0 0.0
2014-Dec-10 11:32N 34°41' E 033°04'0 0.0
2014-Dec-10 10:33N 34°41' E 033°04'0 0.0
2014-Dec-10 09:31N 34°41' E 033°04'0 0.0
2014-Dec-10 08:31N 34°41' E 033°04'0 0.2
2014-Dec-10 07:33N 34°40' E 033°04'9 8.6
2014-Dec-10 06:33N 34°36' E 033°13'1110.4
2014-Dec-10 05:32N 34°33' E 033°26'  
Track history (hours):
 
Tides and Currents Weather Stations Pressure Air Temp Water Temp Dewpoint Dewpoint Depression Visibility Wind Speed Wind Dir Waves Ship Positions

Zaher_v

Last reported at 2014-Dec-18 23:06 UTC. Time now 2014-Dec-20 07:18 UTC.
Position N 37°24' W 001°10'.

Length 124 m; draft 4.9 m.

Type: Cargo ship. MMSI: 450501000.

Date/timePositionNaut miles runAvg speedWind from/ knotsBaromVisibWave heightAir tempDewpointWater temp
2014-Dec-18 23:06N 37°24' W 001°10'14 2.9
2014-Dec-18 18:14N 37°34' W 000°57'0 0.0
2014-Dec-18 17:33N 37°34' W 000°57'0 0.0
2014-Dec-18 16:31N 37°34' W 000°57'0 0.0
2014-Dec-18 15:31N 37°34' W 000°57'0 0.0
2014-Dec-18 14:31N 37°34' W 000°57'0 0.0
2014-Dec-18 13:32N 37°34' W 000°57'0 0.0
2014-Dec-18 12:32N 37°34' W 000°57'0 0.0
2014-Dec-18 11:33N 37°34' W 000°57'0 0.0
2014-Dec-18 10:31N 37°34' W 000°57'0 0.0
2014-Dec-18 09:31N 37°34' W 000°57'0 0.0
2014-Dec-18 08:32N 37°34' W 000°57'0 0.0
2014-Dec-18 02:33N 37°34' W 000°57'0 0.0
2014-Dec-18 01:31N 37°34' W 000°57'0 0.0
2014-Dec-18 00:31N 37°34' W 000°57'0 0.0
2014-Dec-17 23:32N 37°34' W 000°57'0 0.1
2014-Dec-17 22:17N 37°34' W 000°57'2 3.4
2014-Dec-17 21:33N 37°32' W 000°60'1 0.7
2014-Dec-17 20:33N 37°32' W 000°60'9 8.3
2014-Dec-17 19:27N 37°29' W 000°49'1111.9
2014-Dec-17 18:33N 37°29' W 000°36'  
2014-Dec-10 22:04N 34°31' E 032°34'610.6
2014-Dec-10 21:33N 34°31' E 032°41'1010.4
2014-Dec-10 20:33N 34°31' E 032°54'9 9.3
2014-Dec-10 19:33N 34°33' E 033°05'8 7.4
2014-Dec-10 18:31N 34°41' E 033°04'0 0.0
2014-Dec-10 17:31N 34°41' E 033°04'0 0.0
2014-Dec-10 16:32N 34°41' E 033°04'0 0.0
2014-Dec-10 15:33N 34°41' E 033°04'0 0.0
2014-Dec-10 14:33N 34°41' E 033°04'0 0.0
2014-Dec-10 13:31N 34°41' E 033°04'0 0.0
2014-Dec-10 12:32N 34°41' E 033°04'0 0.0
2014-Dec-10 11:32N 34°41' E 033°04'0 0.0
2014-Dec-10 10:33N 34°41' E 033°04'0 0.0
2014-Dec-10 09:31N 34°41' E 033°04'0 0.0
2014-Dec-10 08:31N 34°41' E 033°04'0 0.2
2014-Dec-10 07:33N 34°40' E 033°04'9 8.6
2014-Dec-10 06:33N 34°36' E 033°13'1110.4
2014-Dec-10 05:32N 34°33' E 033°26'  

Dump ship's entire track history